createdAt,value
2018-08-16T00:01:04.042Z,87.20
2018-08-16T00:03:33.532Z,87.70
2018-08-16T00:06:06.926Z,87.80
2018-08-16T00:08:37.283Z,87.80
2018-08-16T00:11:06.573Z,88.20
2018-08-16T00:13:35.775Z,88.20
2018-08-16T00:16:06.178Z,88.20
2018-08-16T00:18:35.841Z,88.50
2018-08-16T00:21:05.030Z,88.70
2018-08-16T00:23:34.645Z,89.00
2018-08-16T00:26:05.416Z,89.00
2018-08-16T00:28:34.704Z,89.20
2018-08-16T00:31:04.160Z,89.50
2018-08-16T00:33:33.516Z,90.10
2018-08-16T00:36:02.997Z,89.70
2018-08-16T00:38:32.158Z,90.30
2018-08-16T00:41:01.907Z,90.10
2018-08-16T00:43:31.123Z,90.20
2018-08-16T00:46:00.445Z,90.60
2018-08-16T00:48:31.125Z,90.60
2018-08-16T00:51:00.629Z,90.90
2018-08-16T00:53:29.947Z,91.00
2018-08-16T00:55:59.442Z,90.90
2018-08-16T00:58:29.411Z,91.10
2018-08-16T01:00:58.532Z,91.20
2018-08-16T01:03:32.971Z,90.70
2018-08-16T01:06:02.338Z,90.90
2018-08-16T01:08:31.557Z,91.10
2018-08-16T01:11:02.157Z,91.00
2018-08-16T01:13:31.271Z,90.80
2018-08-16T01:16:00.572Z,90.80
2018-08-16T01:18:30.173Z,91.00
2018-08-16T01:21:04.537Z,91.00
2018-08-16T01:23:34.379Z,90.90
2018-08-16T01:26:03.431Z,91.10
2018-08-16T01:28:32.543Z,91.50
2018-08-16T01:31:07.679Z,91.10
2018-08-16T01:33:36.716Z,91.30
2018-08-16T01:36:06.150Z,91.40
2018-08-16T01:38:35.766Z,91.10
2018-08-16T01:41:05.224Z,90.90
2018-08-16T01:43:34.292Z,91.30
2018-08-16T01:46:03.353Z,90.90
2018-08-16T01:48:32.801Z,91.30
2018-08-16T01:51:02.307Z,91.30
2018-08-16T01:53:31.359Z,91.10
2018-08-16T01:56:00.789Z,91.10
2018-08-16T01:58:30.186Z,91.00
2018-08-16T02:00:59.565Z,91.30
2018-08-16T02:03:28.695Z,91.20
2018-08-16T02:05:57.756Z,91.50
2018-08-16T02:08:27.007Z,91.40
2018-08-16T02:10:56.070Z,91.30
2018-08-16T02:13:25.417Z,91.30
2018-08-16T02:15:58.384Z,91.80
2018-08-16T02:18:27.504Z,91.50
2018-08-16T02:20:56.695Z,91.20
2018-08-16T02:23:27.062Z,91.20
2018-08-16T02:25:56.142Z,91.30
2018-08-16T02:28:25.147Z,91.20
2018-08-16T02:30:54.149Z,91.40
2018-08-16T02:33:23.187Z,91.60
2018-08-16T02:35:52.320Z,91.90
2018-08-16T02:38:22.770Z,92.30
2018-08-16T02:40:51.826Z,92.30
2018-08-16T02:43:20.881Z,91.50
2018-08-16T02:45:49.934Z,92.40
2018-08-16T02:48:19.651Z,92.00
2018-08-16T02:50:48.831Z,92.40
2018-08-16T02:53:17.895Z,92.90
2018-08-16T02:55:47.011Z,93.00
2018-08-16T02:58:16.591Z,92.60
2018-08-16T03:00:45.651Z,92.60
2018-08-16T03:03:14.774Z,92.30
2018-08-16T03:05:43.888Z,92.70
2018-08-16T03:08:12.994Z,92.50
2018-08-16T03:10:42.431Z,93.10
2018-08-16T03:13:11.812Z,93.10
2018-08-16T03:15:40.889Z,92.70
2018-08-16T03:18:10.074Z,93.30
2018-08-16T03:20:39.305Z,93.50
2018-08-16T03:23:09.099Z,92.70
2018-08-16T03:25:38.292Z,93.40
2018-08-16T03:28:09.374Z,93.40
2018-08-16T03:30:38.414Z,92.60
2018-08-16T03:33:07.790Z,93.30
2018-08-16T03:35:36.833Z,93.70
2018-08-16T03:38:06.512Z,93.00
2018-08-16T03:40:38.942Z,93.00
2018-08-16T03:43:08.393Z,92.70
2018-08-16T03:45:37.445Z,92.40
2018-08-16T03:48:07.274Z,92.60
2018-08-16T03:50:36.914Z,92.50
2018-08-16T03:53:06.309Z,92.90
2018-08-16T03:55:35.510Z,92.30
2018-08-16T03:58:04.985Z,93.00
2018-08-16T04:00:34.096Z,93.00
2018-08-16T04:03:03.216Z,93.00
2018-08-16T04:05:32.365Z,92.90
2018-08-16T04:08:07.699Z,92.90
2018-08-16T04:10:36.805Z,92.80
2018-08-16T04:13:06.936Z,93.10
2018-08-16T04:15:35.977Z,92.60
2018-08-16T04:18:05.460Z,93.00
2018-08-16T04:20:34.520Z,93.40
2018-08-16T04:23:03.636Z,93.10
2018-08-16T04:25:34.923Z,93.00
2018-08-16T04:28:04.604Z,93.30
2018-08-16T04:30:34.440Z,92.80
2018-08-16T04:33:05.274Z,92.40
2018-08-16T04:35:34.812Z,92.10
2018-08-16T04:38:05.079Z,92.10
2018-08-16T04:40:34.193Z,92.30
2018-08-16T04:43:03.642Z,92.40
2018-08-16T04:45:32.930Z,92.30
2018-08-16T04:48:02.253Z,92.70
2018-08-16T04:50:31.373Z,92.90
2018-08-16T04:53:00.909Z,92.70
2018-08-16T04:55:30.151Z,92.90
2018-08-16T04:57:59.260Z,92.60
2018-08-16T05:00:28.964Z,92.80
2018-08-16T05:02:58.802Z,92.90
2018-08-16T05:05:29.314Z,93.10
2018-08-16T05:07:59.955Z,93.40
2018-08-16T05:10:30.505Z,93.30
2018-08-16T05:13:00.321Z,93.30
2018-08-16T05:15:29.500Z,93.40
2018-08-16T05:17:59.471Z,93.20
2018-08-16T05:20:29.269Z,93.60
2018-08-16T05:23:00.277Z,93.60
2018-08-16T05:25:30.189Z,93.50
2018-08-16T05:28:01.436Z,93.40
2018-08-16T05:30:30.699Z,93.40
2018-08-16T05:32:59.889Z,93.40
2018-08-16T05:35:29.115Z,93.10
2018-08-16T05:37:58.568Z,93.10
2018-08-16T05:40:28.050Z,93.10
2018-08-16T05:42:58.412Z,92.70
2018-08-16T05:45:27.973Z,92.50
2018-08-16T05:47:58.068Z,92.50
2018-08-16T05:50:27.525Z,92.50
2018-08-16T05:52:56.704Z,92.30
2018-08-16T05:55:25.914Z,91.80
2018-08-16T05:57:55.642Z,91.70
2018-08-16T06:00:25.806Z,91.90
2018-08-16T06:02:55.484Z,91.30
2018-08-16T06:05:24.576Z,91.30
2018-08-16T06:07:53.698Z,91.10
2018-08-16T06:10:23.582Z,91.20
2018-08-16T06:12:52.886Z,90.90
2018-08-16T06:15:22.082Z,90.60
2018-08-16T06:17:52.731Z,90.60
2018-08-16T06:20:22.558Z,90.40
2018-08-16T06:22:51.646Z,90.40
2018-08-16T06:25:20.793Z,90.20
2018-08-16T06:27:53.119Z,90.10
2018-08-16T06:30:22.278Z,89.90
2018-08-16T06:32:51.329Z,89.60
2018-08-16T06:35:20.414Z,89.90
2018-08-16T06:37:50.943Z,88.90
2018-08-16T06:40:20.131Z,88.80
2018-08-16T06:42:49.454Z,87.10
2018-08-16T06:45:19.040Z,87.10
2018-08-16T06:47:50.234Z,87.00
2018-08-16T06:50:19.347Z,86.50
2018-08-16T06:52:48.443Z,85.50
2018-08-16T06:55:17.834Z,85.10
2018-08-16T06:57:46.901Z,85.60
2018-08-16T07:00:17.389Z,85.50
2018-08-16T07:02:46.861Z,85.00
2018-08-16T07:05:16.168Z,83.50
2018-08-16T07:07:45.226Z,83.40
2018-08-16T07:10:14.838Z,82.80
2018-08-16T07:12:49.361Z,82.10
2018-08-16T07:15:18.489Z,81.20
2018-08-16T07:17:47.659Z,80.00
2018-08-16T07:20:16.820Z,79.90
2018-08-16T07:22:46.475Z,78.80
2018-08-16T07:25:16.150Z,78.10
2018-08-16T07:27:45.366Z,77.10
2018-08-16T07:30:16.780Z,77.00
2018-08-16T07:32:45.906Z,76.50
2018-08-16T07:35:15.353Z,75.00
2018-08-16T07:37:45.280Z,74.90
2018-08-16T07:40:15.594Z,74.30
2018-08-16T07:42:44.825Z,74.10
2018-08-16T07:45:14.008Z,72.80
2018-08-16T07:47:43.165Z,72.70
2018-08-16T07:50:12.892Z,72.10
2018-08-16T07:52:42.144Z,71.20
2018-08-16T07:55:11.784Z,71.20
2018-08-16T07:57:40.958Z,70.30
2018-08-16T08:00:15.203Z,70.10
2018-08-16T08:02:44.642Z,69.30
2018-08-16T08:05:13.951Z,68.90
2018-08-16T08:07:43.700Z,69.30
2018-08-16T08:10:12.955Z,68.70
2018-08-16T08:12:42.121Z,67.90
2018-08-16T08:15:14.769Z,68.10
2018-08-16T08:17:45.305Z,68.30
2018-08-16T08:20:16.403Z,68.70
2018-08-16T08:22:45.721Z,68.60
2018-08-16T08:25:15.687Z,68.80
2018-08-16T08:27:46.504Z,68.30
2018-08-16T08:30:16.918Z,67.50
2018-08-16T08:32:46.385Z,66.40
2018-08-16T08:35:15.511Z,66.50
2018-08-16T08:37:57.125Z,66.50
2018-08-16T08:40:27.341Z,66.90
2018-08-16T08:42:58.241Z,66.60
2018-08-16T08:45:27.603Z,66.60
2018-08-16T08:47:58.732Z,65.30
2018-08-16T08:50:29.586Z,64.90
2018-08-16T08:53:10.847Z,65.40
2018-08-16T08:55:51.620Z,64.90
2018-08-16T08:58:32.934Z,64.70
2018-08-16T09:01:02.946Z,64.70
2018-08-16T09:03:33.466Z,64.30
2018-08-16T09:06:04.560Z,64.90
2018-08-16T09:08:38.424Z,64.20
2018-08-16T09:11:19.605Z,64.00
2018-08-16T09:16:01.174Z,63.20
2018-08-16T09:18:32.505Z,64.80
2018-08-16T09:21:03.529Z,62.70
2018-08-16T09:23:33.465Z,61.70
2018-08-16T09:26:07.560Z,62.90
2018-08-16T09:28:36.806Z,64.00
2018-08-16T09:31:17.307Z,61.90
2018-08-16T09:33:58.731Z,62.30
2018-08-16T09:36:27.963Z,62.10
2018-08-16T09:38:57.946Z,62.30
2018-08-16T09:41:27.680Z,62.10
2018-08-16T09:43:58.633Z,62.50
2018-08-16T09:47:07.424Z,62.80
2018-08-16T09:49:40.565Z,62.20
2018-08-16T09:52:11.868Z,61.90
2018-08-16T09:54:41.235Z,62.20
2018-08-16T09:57:11.538Z,60.90
2018-08-16T09:59:40.733Z,60.40
2018-08-16T10:02:13.549Z,61.50
2018-08-16T10:04:45.931Z,62.70
2018-08-16T10:07:15.087Z,63.60
2018-08-16T10:09:44.476Z,60.10
2018-08-16T10:12:14.150Z,61.00
2018-08-16T10:14:43.414Z,61.30
2018-08-16T10:17:12.513Z,61.00
2018-08-16T10:19:41.993Z,62.90
2018-08-16T10:22:11.538Z,59.80
2018-08-16T10:24:40.768Z,59.30
2018-08-16T10:27:10.932Z,59.40
2018-08-16T10:29:41.880Z,59.20
2018-08-16T10:32:12.113Z,61.10
2018-08-16T10:34:41.314Z,60.60
2018-08-16T10:37:10.882Z,59.30
2018-08-16T10:39:40.106Z,60.70
2018-08-16T10:42:09.707Z,59.30
2018-08-16T10:44:39.102Z,59.80
2018-08-16T10:47:08.268Z,60.30
2018-08-16T10:49:38.745Z,59.50
2018-08-16T10:52:09.839Z,60.20
2018-08-16T10:54:40.128Z,58.60
2018-08-16T10:57:10.753Z,58.90
2018-08-16T10:59:40.669Z,58.90
2018-08-16T11:02:11.112Z,58.30
2018-08-16T11:04:40.589Z,59.90
2018-08-16T11:07:09.802Z,57.90
2018-08-16T11:09:39.011Z,58.10
2018-08-16T11:12:08.726Z,57.90
2018-08-16T11:14:39.183Z,58.40
2018-08-16T11:17:09.685Z,58.60
2018-08-16T11:19:38.804Z,57.90
2018-08-16T11:22:08.359Z,57.90
2018-08-16T11:24:40.611Z,58.40
2018-08-16T11:27:25.392Z,58.10
2018-08-16T11:29:54.896Z,57.70
2018-08-16T11:32:24.095Z,58.20
2018-08-16T11:34:53.300Z,58.00
2018-08-16T11:37:25.626Z,57.80
2018-08-16T11:39:55.804Z,57.10
2018-08-16T11:42:25.634Z,57.20
2018-08-16T11:44:55.200Z,57.30
2018-08-16T11:47:24.363Z,56.80
2018-08-16T11:49:54.419Z,57.10
2018-08-16T11:52:24.529Z,56.80
2018-08-16T11:54:55.475Z,57.50
2018-08-16T11:57:25.428Z,56.30
2018-08-16T11:59:55.274Z,56.00
2018-08-16T12:02:25.057Z,56.10
2018-08-16T12:04:54.293Z,55.80
2018-08-16T12:07:23.550Z,56.10
2018-08-16T12:09:53.169Z,56.10
2018-08-16T12:12:23.693Z,55.10
2018-08-16T12:14:52.989Z,55.90
2018-08-16T12:17:22.597Z,55.80
2018-08-16T12:19:52.515Z,56.40
2018-08-16T12:22:22.475Z,55.40
2018-08-16T12:24:52.362Z,56.20
2018-08-16T12:27:22.779Z,54.90
2018-08-16T12:29:52.322Z,54.80
2018-08-16T12:32:21.783Z,54.20
2018-08-16T12:34:50.941Z,54.40
2018-08-16T12:37:20.229Z,54.30
2018-08-16T12:39:51.118Z,54.00
2018-08-16T12:42:20.948Z,54.30
2018-08-16T12:44:50.488Z,54.90
2018-08-16T12:47:20.158Z,54.00
2018-08-16T12:49:51.819Z,53.90
2018-08-16T12:52:21.642Z,53.40
2018-08-16T12:54:51.652Z,52.90
2018-08-16T12:57:24.662Z,52.90
2018-08-16T12:59:55.725Z,53.30
2018-08-16T13:02:25.544Z,52.50
2018-08-16T13:04:55.003Z,52.20
2018-08-16T13:07:25.468Z,52.60
2018-08-16T13:09:58.199Z,53.50
2018-08-16T13:12:27.502Z,52.80
2018-08-16T13:14:56.772Z,53.00
2018-08-16T13:17:25.937Z,52.30
2018-08-16T13:19:55.732Z,51.90
2018-08-16T13:22:27.274Z,52.50
2018-08-16T13:24:57.228Z,52.80
2018-08-16T13:27:27.579Z,52.20
2018-08-16T13:29:57.275Z,52.20
2018-08-16T13:32:28.589Z,52.80
2018-08-16T13:34:58.420Z,52.70
2018-08-16T13:37:29.477Z,52.50
2018-08-16T13:39:59.828Z,52.30
2018-08-16T13:42:29.463Z,51.40
2018-08-16T13:44:58.922Z,52.20
2018-08-16T13:47:29.435Z,52.60
2018-08-16T13:49:58.839Z,52.60
2018-08-16T13:52:30.099Z,51.20
2018-08-16T13:55:01.399Z,51.10
2018-08-16T13:57:32.888Z,50.80
2018-08-16T14:00:07.880Z,51.80
2018-08-16T14:02:37.100Z,50.70
2018-08-16T14:05:07.614Z,51.20
2018-08-16T14:07:37.565Z,50.20
2018-08-16T14:10:09.528Z,51.00
2018-08-16T14:12:39.768Z,50.30
2018-08-16T14:15:09.958Z,51.10
2018-08-16T14:17:39.452Z,50.60
2018-08-16T14:20:09.194Z,50.70
2018-08-16T14:22:38.858Z,50.70
2018-08-16T14:25:08.454Z,51.00
2018-08-16T14:27:39.484Z,50.80
2018-08-16T14:30:09.298Z,50.60
2018-08-16T14:32:39.167Z,50.90
2018-08-16T14:35:08.623Z,50.30
2018-08-16T14:37:37.980Z,50.60
2018-08-16T14:40:07.357Z,50.20
2018-08-16T14:42:39.888Z,50.80
2018-08-16T14:45:09.482Z,49.60
2018-08-16T14:47:38.952Z,49.90
2018-08-16T14:50:08.508Z,50.00
2018-08-16T14:52:37.847Z,50.60
2018-08-16T14:55:07.690Z,49.40
2018-08-16T14:57:37.309Z,49.80
2018-08-16T15:00:07.592Z,49.40
2018-08-16T15:02:38.898Z,49.50
2018-08-16T15:05:09.506Z,49.30
2018-08-16T15:07:38.865Z,49.60
2018-08-16T15:10:08.400Z,49.00
2018-08-16T15:12:39.465Z,49.80
2018-08-16T15:15:09.743Z,49.20
2018-08-16T15:17:39.012Z,49.60
2018-08-16T15:20:10.845Z,48.60
2018-08-16T15:22:40.338Z,48.00
2018-08-16T15:25:09.758Z,48.90
2018-08-16T15:27:40.846Z,48.10
2018-08-16T15:30:10.607Z,48.40
2018-08-16T15:32:42.810Z,48.20
2018-08-16T15:35:12.351Z,49.30
2018-08-16T15:37:41.619Z,49.60
2018-08-16T15:40:11.113Z,49.40
2018-08-16T15:42:40.610Z,48.00
2018-08-16T15:45:11.039Z,48.80
2018-08-16T15:47:40.469Z,48.60
2018-08-16T15:50:09.974Z,49.00
2018-08-16T15:52:39.984Z,48.30
2018-08-16T15:55:10.108Z,48.30
2018-08-16T15:57:39.982Z,49.40
2018-08-16T16:00:11.503Z,49.60
2018-08-16T16:02:44.327Z,49.00
2018-08-16T16:05:15.812Z,48.50
2018-08-16T16:07:48.531Z,48.10
2018-08-16T16:10:20.113Z,47.40
2018-08-16T16:12:50.478Z,48.10
2018-08-16T16:15:21.291Z,47.70
2018-08-16T16:17:52.328Z,48.30
2018-08-16T16:20:22.622Z,48.50
2018-08-16T16:22:52.786Z,48.30
2018-08-16T16:25:22.686Z,48.90
2018-08-16T16:27:52.597Z,49.10
2018-08-16T16:30:23.367Z,48.80
2018-08-16T16:32:54.333Z,48.80
2018-08-16T16:35:24.037Z,49.50
2018-08-16T16:37:53.660Z,47.80
2018-08-16T16:40:23.483Z,48.40
2018-08-16T16:42:54.411Z,48.60
2018-08-16T16:45:25.528Z,49.20
2018-08-16T16:47:55.998Z,49.70
2018-08-16T16:50:25.379Z,49.50
2018-08-16T16:52:57.425Z,48.50
2018-08-16T16:55:28.110Z,49.60
2018-08-16T16:57:58.302Z,49.40
2018-08-16T17:00:28.943Z,49.00
2018-08-16T17:03:01.218Z,49.10
2018-08-16T17:05:36.232Z,49.60
2018-08-16T17:08:07.662Z,50.90
2018-08-16T17:10:37.447Z,50.30
2018-08-16T17:13:08.287Z,50.20
2018-08-16T17:15:40.174Z,50.90
2018-08-16T17:18:10.971Z,51.70
2018-08-16T17:20:40.808Z,52.00
2018-08-16T17:23:10.258Z,53.50
2018-08-16T17:25:39.868Z,53.00
2018-08-16T17:28:10.743Z,53.40
2018-08-16T17:30:41.712Z,53.50
2018-08-16T17:33:12.691Z,53.90
2018-08-16T17:35:43.428Z,53.90
2018-08-16T17:38:13.813Z,54.60
2018-08-16T17:40:43.190Z,55.10
2018-08-16T17:43:13.568Z,55.00
2018-08-16T17:45:43.828Z,55.00
2018-08-16T17:48:14.174Z,55.40
2018-08-16T17:50:44.313Z,55.60
2018-08-16T17:53:14.656Z,55.90
2018-08-16T17:55:43.867Z,55.80
2018-08-16T17:58:13.353Z,55.60
2018-08-16T18:00:43.449Z,55.70
2018-08-16T18:03:13.736Z,56.00
2018-08-16T18:05:43.214Z,56.50
2018-08-16T18:08:12.862Z,56.30
2018-08-16T18:10:42.900Z,56.90
2018-08-16T18:13:12.912Z,57.10
2018-08-16T18:15:43.414Z,57.00
2018-08-16T18:18:12.894Z,57.20
2018-08-16T18:20:44.561Z,57.40
2018-08-16T18:23:14.203Z,57.60
2018-08-16T18:25:45.653Z,57.90
2018-08-16T18:28:17.914Z,58.00
2018-08-16T18:30:49.109Z,58.40
2018-08-16T18:33:18.626Z,58.70
2018-08-16T18:35:51.403Z,59.20
2018-08-16T18:38:21.628Z,59.40
2018-08-16T18:40:55.089Z,59.60
2018-08-16T18:43:25.367Z,59.60
2018-08-16T18:45:56.793Z,59.80
2018-08-16T18:48:27.304Z,60.00
2018-08-16T18:50:56.881Z,60.30
2018-08-16T18:53:28.064Z,61.20
2018-08-16T18:56:02.322Z,62.70
2018-08-16T18:58:31.891Z,62.80
2018-08-16T19:01:05.480Z,63.50
2018-08-16T19:03:34.902Z,63.60
2018-08-16T19:06:04.590Z,63.90
2018-08-16T19:08:34.419Z,63.70
2018-08-16T19:11:03.944Z,64.10
2018-08-16T19:13:34.383Z,65.10
2018-08-16T19:16:05.438Z,65.40
2018-08-16T19:18:34.713Z,65.10
2018-08-16T19:21:04.011Z,64.70
2018-08-16T19:23:33.328Z,65.20
2018-08-16T19:26:03.276Z,65.90
2018-08-16T19:28:33.618Z,66.10
2018-08-16T19:31:06.378Z,66.90
2018-08-16T19:33:36.900Z,67.40
2018-08-16T19:36:06.379Z,67.60
2018-08-16T19:38:35.810Z,68.30
2018-08-16T19:41:09.235Z,68.00
2018-08-16T19:43:38.588Z,69.00
2018-08-16T19:46:08.293Z,69.50
2018-08-16T19:48:38.462Z,69.60
2018-08-16T19:51:08.219Z,69.30
2018-08-16T19:53:37.840Z,70.20
2018-08-16T19:56:09.232Z,69.70
2018-08-16T19:58:38.837Z,70.20
2018-08-16T20:01:14.037Z,70.40
2018-08-16T20:03:44.157Z,70.40
2018-08-16T20:06:14.523Z,70.70
2018-08-16T20:08:45.111Z,70.90
2018-08-16T20:11:14.517Z,71.40
2018-08-16T20:14:00.365Z,71.20
2018-08-16T20:16:36.289Z,72.20
2018-08-16T20:19:11.161Z,71.80
2018-08-16T20:21:40.856Z,72.30
2018-08-16T20:24:10.510Z,72.30
2018-08-16T20:26:40.060Z,73.40
2018-08-16T20:29:10.028Z,73.90
2018-08-16T20:31:41.216Z,74.20
2018-08-16T20:34:10.880Z,73.50
2018-08-16T20:37:51.820Z,73.70
2018-08-16T20:40:22.181Z,75.20
2018-08-16T20:42:51.646Z,75.40
2018-08-16T20:45:22.227Z,76.30
2018-08-16T20:47:56.184Z,74.90
2018-08-16T20:52:47.765Z,74.80
2018-08-16T20:55:17.407Z,75.70
2018-08-16T20:57:48.236Z,76.60
2018-08-16T21:00:18.936Z,76.40
2018-08-16T21:02:48.217Z,76.50
2018-08-16T21:05:18.283Z,75.90
2018-08-16T21:07:48.827Z,76.60
2018-08-16T21:10:18.554Z,76.30
2018-08-16T21:12:51.276Z,76.80
2018-08-16T21:15:20.647Z,76.30
2018-08-16T21:17:50.281Z,76.20
2018-08-16T21:20:20.403Z,76.60
2018-08-16T21:22:49.727Z,76.70
2018-08-16T21:25:18.991Z,76.40
2018-08-16T21:27:48.517Z,76.70
2018-08-16T21:30:19.687Z,76.60
2018-08-16T21:32:49.847Z,75.50
2018-08-16T21:35:19.110Z,76.10
2018-08-16T21:37:48.361Z,77.00
2018-08-16T21:40:18.382Z,77.00
2018-08-16T21:42:47.716Z,76.90
2018-08-16T21:45:17.822Z,76.70
2018-08-16T21:47:47.046Z,76.90
2018-08-16T21:50:17.006Z,77.40
2018-08-16T21:52:46.427Z,77.80
2018-08-16T21:55:15.755Z,78.00
2018-08-16T21:57:45.055Z,77.50
2018-08-16T22:00:26.822Z,77.20
2018-08-16T22:02:56.302Z,77.90
2018-08-16T22:05:26.111Z,78.30
2018-08-16T22:08:10.872Z,78.20
2018-08-16T22:10:41.100Z,78.30
2018-08-16T22:13:13.643Z,78.90
2018-08-16T22:15:44.473Z,78.70
2018-08-16T22:18:14.341Z,79.10
2018-08-16T22:20:43.475Z,79.40
2018-08-16T22:23:13.066Z,80.30
2018-08-16T22:25:42.583Z,80.80
2018-08-16T22:28:12.211Z,81.00
2018-08-16T22:30:41.813Z,82.00
2018-08-16T22:33:11.642Z,81.70
2018-08-16T22:35:40.855Z,81.30
2018-08-16T22:38:11.341Z,81.20
2018-08-16T22:40:40.803Z,81.10
2018-08-16T22:43:18.296Z,80.90
2018-08-16T22:45:48.558Z,80.70
2018-08-16T22:48:17.706Z,81.20
2018-08-16T22:50:47.194Z,80.90
2018-08-16T22:53:17.867Z,80.70
2018-08-16T22:55:47.294Z,82.10
2018-08-16T22:58:16.615Z,82.30
2018-08-16T23:00:46.829Z,82.40
2018-08-16T23:03:16.392Z,82.20
2018-08-16T23:05:45.689Z,82.50
2018-08-16T23:08:14.870Z,82.80
2018-08-16T23:10:44.185Z,82.00
2018-08-16T23:13:13.370Z,82.20
2018-08-16T23:15:43.689Z,83.30
2018-08-16T23:18:12.904Z,83.60
2018-08-16T23:20:42.229Z,83.80
2018-08-16T23:23:11.585Z,83.50
2018-08-16T23:25:40.704Z,83.80
2018-08-16T23:28:10.454Z,84.10
2018-08-16T23:30:40.966Z,84.80
2018-08-16T23:33:10.905Z,84.80
2018-08-16T23:35:40.279Z,85.10
2018-08-16T23:38:11.965Z,84.60
2018-08-16T23:40:41.444Z,84.40
2018-08-16T23:43:10.659Z,84.90
2018-08-16T23:45:40.102Z,86.50
2018-08-16T23:48:31.379Z,86.40
2018-08-16T23:51:00.888Z,86.70
2018-08-16T23:53:30.861Z,87.00
2018-08-16T23:56:00.125Z,86.80
2018-08-16T23:58:29.756Z,87.20
